Melville, North Dakota
Current Conditions -  °F | °C
As of 1:35 PM on Friday 31 Oct 2014 (Local Time) from K46D Reporting Station
Clear Clear  
Wind Chill: 22°   Ceiling: Unl
Heat Index: 34°   Visibility: 10mi
Dew Point: 18°   Wind: 20mph
Humidity: 52%   Direction: 170°S
Pressure: 30.43"   Gusts: 25mph
Location:  47.4573°N, 99.0752°W
Report Text: K46D 311835Z AUTO 17017G22KT 10SM CLR 01/M08 A3043 RMK AO2
Loading
Personal Weather Stations






























Interactive Weather Map
Tropical Storm Tracking
New forecast layout! Learn more

10-Day Weather Forecast

Advertisements
Track Severe Weather on mobile